createdAt,value
2018-05-16T00:01:39.972Z,16.13
2018-05-16T00:04:13.073Z,15.67
2018-05-16T00:06:41.379Z,16.63
2018-05-16T00:09:15.053Z,16.17
2018-05-16T00:11:43.735Z,17.87
2018-05-16T00:14:18.391Z,18.20
2018-05-16T00:16:47.127Z,18.83
2018-05-16T00:19:24.350Z,17.30
2018-05-16T00:21:52.302Z,17.07
2018-05-16T00:24:21.353Z,18.53
2018-05-16T00:26:50.335Z,19.67
2018-05-16T00:29:32.571Z,18.07
2018-05-16T00:32:00.551Z,16.80
2018-05-16T00:34:29.629Z,17.13
2018-05-16T00:36:59.866Z,17.50
2018-05-16T00:39:28.372Z,18.67
2018-05-16T00:41:56.617Z,15.87
2018-05-16T00:44:24.759Z,17.70
2018-05-16T00:46:53.093Z,17.97
2018-05-16T00:49:26.326Z,18.27
2018-05-16T00:51:55.825Z,19.63
2018-05-16T00:54:28.871Z,19.27
2018-05-16T00:56:58.096Z,17.50
2018-05-16T00:59:36.119Z,18.03
2018-05-16T01:02:04.649Z,18.77
2018-05-16T01:04:57.015Z,18.80
2018-05-16T01:07:25.219Z,17.40
2018-05-16T01:10:01.229Z,20.00
2018-05-16T01:12:29.617Z,20.00
2018-05-16T01:14:58.866Z,18.93
2018-05-16T01:17:27.340Z,18.73
2018-05-16T01:20:09.864Z,19.37
2018-05-16T01:22:37.885Z,21.47
2018-05-16T01:25:06.014Z,21.70
2018-05-16T01:27:34.525Z,21.27
2018-05-16T01:30:06.011Z,23.87
2018-05-16T01:32:35.371Z,21.43
2018-05-16T01:35:15.659Z,21.33
2018-05-16T01:37:43.744Z,23.27
2018-05-16T01:40:35.383Z,21.57
2018-05-16T01:43:03.719Z,22.57
2018-05-16T01:45:31.897Z,22.13
2018-05-16T01:48:00.207Z,23.33
2018-05-16T01:50:33.985Z,22.97
2018-05-16T01:53:02.611Z,20.30
2018-05-16T01:55:30.716Z,22.90
2018-05-16T01:57:59.128Z,25.67
2018-05-16T02:00:28.627Z,26.17
2018-05-16T02:02:57.126Z,27.37
2018-05-16T02:05:36.328Z,25.50
2018-05-16T02:08:04.457Z,24.90
2018-05-16T02:10:41.929Z,25.23
2018-05-16T02:13:10.265Z,26.93
2018-05-16T02:15:57.205Z,28.17
2018-05-16T02:18:25.459Z,24.87
2018-05-16T02:20:55.127Z,26.17
2018-05-16T02:23:24.591Z,27.07
2018-05-16T02:25:52.656Z,26.37
2018-05-16T02:28:24.025Z,29.17
2018-05-16T02:30:52.149Z,27.20
2018-05-16T02:33:26.521Z,29.73
2018-05-16T02:35:54.876Z,27.07
2018-05-16T02:38:24.923Z,24.90
2018-05-16T02:40:53.390Z,25.60
2018-05-16T02:43:22.424Z,27.37
2018-05-16T02:45:50.764Z,27.73
2018-05-16T02:48:19.027Z,26.33
2018-05-16T02:50:47.441Z,28.23
2018-05-16T02:53:21.885Z,26.20
2018-05-16T02:55:50.421Z,25.80
2018-05-16T02:58:21.639Z,26.77
2018-05-16T03:00:50.051Z,26.10
2018-05-16T03:03:18.445Z,25.53
2018-05-16T03:05:46.810Z,24.83
2018-05-16T03:08:19.465Z,25.57
2018-05-16T03:10:47.782Z,26.30
2018-05-16T03:13:16.660Z,24.27
2018-05-16T03:15:45.449Z,25.90
2018-05-16T03:18:23.433Z,25.57
2018-05-16T03:20:51.824Z,25.17
2018-05-16T03:23:22.071Z,27.00
2018-05-16T03:25:50.367Z,25.87
2018-05-16T03:28:42.129Z,25.63
2018-05-16T03:31:10.742Z,26.73
2018-05-16T03:33:40.658Z,25.20
2018-05-16T03:36:09.645Z,22.63
2018-05-16T03:38:49.779Z,20.53
2018-05-16T03:41:17.994Z,22.40
2018-05-16T03:43:51.392Z,21.97
2018-05-16T03:46:19.906Z,22.87
2018-05-16T03:48:55.425Z,21.20
2018-05-16T03:51:23.670Z,20.70
2018-05-16T03:54:00.368Z,22.50
2018-05-16T03:56:29.143Z,21.27
2018-05-16T03:59:12.232Z,21.00
2018-05-16T04:04:33.483Z,20.67
2018-05-16T04:07:01.515Z,18.20
2018-05-16T04:09:31.792Z,19.30
2018-05-16T04:12:00.756Z,19.20
2018-05-16T04:14:31.332Z,19.70
2018-05-16T04:17:00.816Z,19.60
2018-05-16T04:19:29.304Z,19.63
2018-05-16T04:21:57.511Z,18.80
2018-05-16T04:24:26.738Z,18.60
2018-05-16T04:26:55.402Z,19.57
2018-05-16T04:29:26.022Z,18.83
2018-05-16T04:31:54.450Z,19.50
2018-05-16T04:34:24.421Z,17.60
2018-05-16T04:36:53.726Z,18.80
2018-05-16T04:39:22.523Z,18.40
2018-05-16T04:41:50.941Z,16.20
2018-05-16T04:44:21.637Z,17.07
2018-05-16T04:46:50.496Z,18.17
2018-05-16T04:49:26.806Z,18.27
2018-05-16T04:51:55.208Z,18.93
2018-05-16T04:54:28.685Z,18.20
2018-05-16T04:57:11.509Z,18.50
2018-05-16T04:59:39.679Z,18.53
2018-05-16T05:02:07.778Z,19.67
2018-05-16T05:04:36.465Z,20.03
2018-05-16T05:09:49.279Z,18.97
2018-05-16T05:12:17.838Z,19.37
2018-05-16T05:14:57.225Z,20.80
2018-05-16T05:17:25.749Z,19.53
2018-05-16T05:19:55.493Z,20.43
2018-05-16T05:22:23.962Z,19.57
2018-05-16T05:24:53.649Z,19.77
2018-05-16T05:27:22.874Z,20.03
2018-05-16T05:29:59.094Z,19.77
2018-05-16T05:32:26.872Z,19.83
2018-05-16T05:34:58.683Z,20.27
2018-05-16T05:37:32.449Z,19.07
2018-05-16T05:40:01.350Z,19.63
2018-05-16T05:42:30.008Z,19.03
2018-05-16T05:44:57.744Z,20.37
2018-05-16T05:47:25.462Z,20.10
2018-05-16T05:49:53.286Z,19.07
2018-05-16T05:52:20.944Z,18.60
2018-05-16T05:54:48.825Z,19.43
2018-05-16T05:57:16.616Z,20.80
2018-05-16T05:59:44.522Z,19.63
2018-05-16T06:02:12.201Z,20.20
2018-05-16T06:04:39.967Z,20.37
2018-05-16T06:07:07.704Z,19.10
2018-05-16T06:09:35.664Z,19.63
2018-05-16T06:12:03.637Z,20.37
2018-05-16T06:14:31.475Z,19.60
2018-05-16T06:16:59.479Z,21.27
2018-05-16T06:19:27.402Z,20.83
2018-05-16T06:21:56.479Z,22.03
2018-05-16T06:24:24.958Z,21.20
2018-05-16T06:26:55.075Z,23.13
2018-05-16T06:29:23.239Z,22.30
2018-05-16T06:31:55.629Z,21.97
2018-05-16T06:34:23.731Z,21.73
2018-05-16T06:36:51.726Z,22.70
2018-05-16T06:39:23.362Z,21.73
2018-05-16T06:41:51.523Z,22.27
2018-05-16T06:50:01.831Z,21.87
2018-05-16T06:52:29.799Z,23.63
2018-05-16T06:54:57.861Z,23.33
2018-05-16T06:57:30.122Z,24.13
2018-05-16T06:59:59.868Z,23.53
2018-05-16T07:02:36.175Z,25.13
2018-05-16T07:05:05.742Z,25.93
2018-05-16T07:07:34.121Z,26.73
2018-05-16T07:10:02.563Z,24.63
2018-05-16T07:12:35.718Z,23.77
2018-05-16T07:15:04.258Z,20.90
2018-05-16T07:17:32.173Z,21.00
2018-05-16T07:20:00.181Z,20.20
2018-05-16T07:22:27.962Z,20.07
2018-05-16T07:24:55.988Z,18.37
2018-05-16T07:27:25.084Z,17.30
2018-05-16T07:29:53.252Z,17.47
2018-05-16T07:32:24.425Z,16.80
2018-05-16T07:34:52.274Z,16.60
2018-05-16T07:37:24.574Z,14.10
2018-05-16T07:39:54.539Z,13.40
2018-05-16T07:42:24.369Z,11.57
2018-05-16T07:44:52.231Z,12.13
2018-05-16T07:47:20.023Z,12.40
2018-05-16T07:49:47.796Z,12.70
2018-05-16T07:52:19.033Z,12.60
2018-05-16T07:54:46.944Z,11.87
2018-05-16T07:57:14.640Z,11.77
2018-05-16T07:59:42.354Z,11.30
2018-05-16T08:02:10.976Z,11.33
2018-05-16T08:04:38.797Z,10.60
2018-05-16T08:07:07.414Z,8.30
2018-05-16T08:09:35.184Z,8.17
2018-05-16T08:12:03.007Z,8.17
2018-05-16T08:14:30.709Z,9.03
2018-05-16T08:16:59.426Z,7.90
2018-05-16T08:19:27.165Z,7.53
2018-05-16T08:21:55.980Z,6.13
2018-05-16T08:24:23.749Z,6.67
2018-05-16T08:26:51.710Z,7.50
2018-05-16T08:29:19.491Z,6.10
2018-05-16T08:31:47.331Z,7.13
2018-05-16T08:34:15.190Z,6.77
2018-05-16T08:36:42.979Z,5.43
2018-05-16T08:39:10.710Z,6.30
2018-05-16T08:41:38.708Z,7.23
2018-05-16T08:44:06.352Z,6.73
2018-05-16T08:46:34.210Z,7.80
2018-05-16T08:49:02.415Z,7.43
2018-05-16T08:51:30.371Z,6.73
2018-05-16T08:53:58.293Z,7.77
2018-05-16T08:56:26.424Z,7.57
2018-05-16T08:58:54.329Z,6.87
2018-05-16T09:01:22.271Z,7.03
2018-05-16T09:03:50.057Z,6.63
2018-05-16T09:06:18.607Z,7.43
2018-05-16T09:08:46.522Z,7.20
2018-05-16T09:11:16.332Z,7.07
2018-05-16T09:13:45.652Z,6.73
2018-05-16T09:16:13.509Z,6.43
2018-05-16T09:18:41.286Z,6.70
2018-05-16T09:21:09.267Z,6.00
2018-05-16T09:23:37.291Z,6.57
2018-05-16T09:26:05.479Z,5.90
2018-05-16T09:28:33.509Z,6.00
2018-05-16T09:31:02.381Z,5.97
2018-05-16T09:33:30.316Z,6.87
2018-05-16T09:35:59.010Z,5.73
2018-05-16T09:38:26.912Z,6.23
2018-05-16T09:40:54.968Z,6.70
2018-05-16T09:43:23.041Z,6.07
2018-05-16T09:45:50.777Z,5.30
2018-05-16T09:48:19.420Z,5.30
2018-05-16T09:50:47.158Z,5.73
2018-05-16T09:53:15.179Z,5.27
2018-05-16T09:55:42.899Z,5.60
2018-05-16T09:58:10.597Z,5.53
2018-05-16T10:00:38.261Z,5.23
2018-05-16T10:03:05.908Z,5.20
2018-05-16T10:05:33.895Z,4.23
2018-05-16T10:08:03.678Z,5.00
2018-05-16T10:10:31.648Z,4.80
2018-05-16T10:12:59.460Z,4.80
2018-05-16T10:15:27.395Z,5.23
2018-05-16T10:18:08.702Z,4.50
2018-05-16T10:20:36.463Z,4.47
2018-05-16T10:23:05.118Z,4.43
2018-05-16T10:25:32.985Z,3.85
2018-05-16T10:28:19.432Z,4.37
2018-05-16T10:30:47.233Z,3.60
2018-05-16T10:33:18.477Z,3.03
2018-05-16T10:35:46.161Z,2.67
2018-05-16T10:38:22.602Z,2.70
2018-05-16T10:40:51.033Z,2.58
2018-05-16T10:43:21.962Z,2.22
2018-05-16T10:45:49.773Z,2.40
2018-05-16T10:48:18.229Z,2.10
2018-05-16T10:50:45.872Z,1.50
2018-05-16T10:53:15.314Z,2.08
2018-05-16T10:55:43.071Z,2.00
2018-05-16T10:58:16.818Z,1.92
2018-05-16T11:00:44.901Z,2.50
2018-05-16T11:03:14.834Z,2.00
2018-05-16T11:05:42.695Z,2.17
2018-05-16T11:08:14.238Z,2.22
2018-05-16T11:10:42.908Z,2.00
2018-05-16T11:13:11.095Z,1.60
2018-05-16T11:15:39.817Z,2.10
2018-05-16T11:18:10.852Z,2.53
2018-05-16T11:20:38.812Z,2.50
2018-05-16T11:23:06.722Z,1.75
2018-05-16T11:25:34.731Z,1.80
2018-05-16T11:28:02.778Z,1.80
2018-05-16T11:30:30.634Z,2.20
2018-05-16T11:32:59.469Z,2.25
2018-05-16T11:35:27.302Z,2.25
2018-05-16T11:37:56.127Z,2.35
2018-05-16T11:40:23.797Z,2.80
2018-05-16T11:42:51.522Z,2.90
2018-05-16T11:45:19.430Z,3.08
2018-05-16T11:47:47.271Z,3.33
2018-05-16T11:50:15.082Z,3.83
2018-05-16T11:52:43.968Z,4.00
2018-05-16T11:55:11.863Z,4.55
2018-05-16T11:57:39.802Z,5.15
2018-05-16T12:00:08.524Z,6.37
2018-05-16T12:02:36.483Z,7.40
2018-05-16T12:05:04.630Z,8.27
2018-05-16T12:07:32.395Z,8.77
2018-05-16T12:10:00.285Z,9.48
2018-05-16T12:12:28.971Z,11.10
2018-05-16T12:14:57.006Z,12.40
2018-05-16T12:17:25.581Z,10.43
2018-05-16T12:19:53.528Z,10.80
2018-05-16T12:22:21.264Z,8.85
2018-05-16T12:24:49.602Z,9.82
2018-05-16T12:27:18.460Z,9.85
2018-05-16T12:29:47.268Z,10.65
2018-05-16T12:32:16.284Z,10.73
2018-05-16T12:34:44.664Z,11.52
2018-05-16T12:37:17.040Z,12.00
2018-05-16T12:39:47.230Z,10.25
2018-05-16T12:42:15.203Z,11.12
2018-05-16T12:44:43.210Z,10.45
2018-05-16T12:47:12.979Z,10.23
2018-05-16T12:49:41.155Z,9.90
2018-05-16T12:52:08.999Z,11.75
2018-05-16T12:54:36.760Z,9.88
2018-05-16T12:57:05.380Z,12.18
2018-05-16T12:59:33.306Z,11.27
2018-05-16T13:02:03.094Z,12.75
2018-05-16T13:04:30.919Z,9.70
2018-05-16T13:07:00.897Z,10.43
2018-05-16T13:09:29.450Z,9.87
2018-05-16T13:11:58.251Z,9.30
2018-05-16T13:14:27.435Z,8.57
2018-05-16T13:16:55.380Z,6.83
2018-05-16T13:19:29.250Z,6.60
2018-05-16T13:21:57.426Z,6.73
2018-05-16T13:24:26.787Z,9.63
2018-05-16T13:26:54.748Z,13.50
2018-05-16T13:29:23.621Z,11.90
2018-05-16T13:31:51.772Z,8.73
2018-05-16T13:34:26.848Z,8.07
2018-05-16T13:36:54.754Z,8.03
2018-05-16T13:39:25.283Z,9.03
2018-05-16T13:41:53.614Z,8.33
2018-05-16T13:44:24.415Z,8.40
2018-05-16T13:47:01.275Z,9.97
2018-05-16T13:49:33.864Z,10.23
2018-05-16T13:52:07.445Z,11.07
2018-05-16T13:54:39.914Z,12.50
2018-05-16T13:57:10.222Z,10.33
2018-05-16T13:59:42.087Z,9.57
2018-05-16T14:02:13.356Z,9.40
2018-05-16T14:04:46.189Z,8.03
2018-05-16T14:07:16.638Z,8.13
2018-05-16T14:09:49.118Z,8.70
2018-05-16T14:12:19.983Z,8.17
2018-05-16T14:14:52.089Z,8.87
2018-05-16T14:17:23.090Z,9.03
2018-05-16T14:19:52.546Z,9.30
2018-05-16T14:22:20.311Z,10.10
2018-05-16T14:24:49.879Z,9.80
2018-05-16T14:27:17.813Z,9.50
2018-05-16T14:29:53.574Z,9.33
2018-05-16T14:32:22.583Z,9.93
2018-05-16T14:35:00.125Z,10.37
2018-05-16T14:37:29.279Z,9.43
2018-05-16T14:39:59.886Z,9.67
2018-05-16T14:42:31.755Z,10.47
2018-05-16T14:45:03.791Z,9.73
2018-05-16T14:47:37.005Z,9.47
2018-05-16T14:50:09.232Z,10.87
2018-05-16T14:52:41.681Z,10.80
2018-05-16T14:55:13.128Z,10.93
2018-05-16T14:57:41.405Z,11.17
2018-05-16T15:00:09.479Z,11.40
2018-05-16T15:02:40.353Z,11.53
2018-05-16T15:05:11.354Z,13.03
2018-05-16T15:07:39.377Z,13.57
2018-05-16T15:10:19.812Z,11.60
2018-05-16T15:12:48.261Z,11.90
2018-05-16T15:15:19.016Z,11.93
2018-05-16T15:17:47.137Z,12.90
2018-05-16T15:20:16.503Z,12.27
2018-05-16T15:22:44.667Z,12.50
2018-05-16T15:25:12.751Z,13.87
2018-05-16T15:27:42.412Z,13.37
2018-05-16T15:30:10.504Z,13.90
2018-05-16T15:32:39.386Z,14.33
2018-05-16T15:35:22.517Z,14.60
2018-05-16T15:37:51.164Z,13.20
2018-05-16T15:40:25.868Z,13.80
2018-05-16T15:42:55.055Z,13.13
2018-05-16T15:45:42.845Z,13.20
2018-05-16T15:48:12.008Z,12.67
2018-05-16T15:50:40.617Z,11.87
2018-05-16T15:53:09.984Z,12.50
2018-05-16T15:55:40.550Z,13.17
2018-05-16T15:58:09.003Z,13.63
2018-05-16T16:00:39.192Z,12.83
2018-05-16T16:03:07.368Z,12.53
2018-05-16T16:05:35.327Z,12.30
2018-05-16T16:08:03.279Z,13.17
2018-05-16T16:10:32.358Z,12.67
2018-05-16T16:13:01.898Z,12.20
2018-05-16T16:15:30.933Z,12.57
2018-05-16T16:18:02.497Z,11.57
2018-05-16T16:20:30.548Z,12.40
2018-05-16T16:23:03.935Z,11.00
2018-05-16T16:25:32.605Z,12.53
2018-05-16T16:28:04.384Z,12.00
2018-05-16T16:30:33.676Z,12.50
2018-05-16T16:33:03.151Z,12.07
2018-05-16T16:35:31.749Z,12.40
2018-05-16T16:38:00.988Z,12.03
2018-05-16T16:40:30.856Z,12.33
2018-05-16T16:43:02.138Z,13.97
2018-05-16T16:45:30.946Z,12.43
2018-05-16T16:48:06.342Z,12.97
2018-05-16T16:50:35.252Z,10.83
2018-05-16T16:53:06.410Z,10.93
2018-05-16T16:55:34.460Z,10.93
2018-05-16T16:58:05.084Z,9.60
2018-05-16T17:00:33.560Z,10.87
2018-05-16T17:03:08.116Z,9.93
2018-05-16T17:05:36.731Z,10.23
2018-05-16T17:08:05.876Z,11.20
2018-05-16T17:10:34.321Z,10.77
2018-05-16T17:13:03.527Z,11.13
2018-05-16T17:15:32.463Z,10.37
2018-05-16T17:18:01.206Z,10.57
2018-05-16T17:20:31.455Z,11.67
2018-05-16T17:23:00.784Z,10.53
2018-05-16T17:25:29.275Z,10.87
2018-05-16T17:27:59.001Z,11.50
2018-05-16T17:30:27.184Z,11.80
2018-05-16T17:32:55.153Z,12.33
2018-05-16T17:35:23.428Z,11.70
2018-05-16T17:37:52.429Z,12.70
2018-05-16T17:40:21.117Z,12.87
2018-05-16T17:42:49.241Z,13.50
2018-05-16T17:45:17.732Z,13.80
2018-05-16T17:47:45.657Z,13.77
2018-05-16T17:50:13.824Z,13.73
2018-05-16T17:52:43.054Z,13.63
2018-05-16T17:55:11.463Z,13.93
2018-05-16T17:57:41.226Z,13.57
2018-05-16T18:00:09.546Z,14.63
2018-05-16T18:02:37.545Z,14.33
2018-05-16T18:05:05.336Z,13.40
2018-05-16T18:07:42.895Z,13.97
2018-05-16T18:10:12.957Z,12.00
2018-05-16T18:12:59.633Z,12.20
2018-05-16T18:21:16.747Z,12.47
2018-05-16T18:23:45.385Z,12.60
2018-05-16T18:26:13.949Z,12.43
2018-05-16T18:28:43.442Z,12.17
2018-05-16T18:31:12.191Z,13.50
2018-05-16T18:33:40.673Z,11.47
2018-05-16T18:36:15.126Z,12.87
2018-05-16T18:38:43.407Z,12.30
2018-05-16T18:41:11.764Z,12.57
2018-05-16T18:43:40.712Z,13.27
2018-05-16T18:46:09.817Z,13.67
2018-05-16T18:48:38.130Z,14.83
2018-05-16T18:51:07.766Z,13.67
2018-05-16T18:53:37.147Z,13.57
2018-05-16T18:56:05.141Z,14.43
2018-05-16T18:58:34.140Z,15.07
2018-05-16T19:01:02.429Z,14.83
2018-05-16T19:03:31.297Z,15.50
2018-05-16T19:05:59.431Z,14.07
2018-05-16T19:08:27.263Z,14.73
2018-05-16T19:10:56.504Z,15.10
2018-05-16T19:13:25.968Z,15.60
2018-05-16T19:15:55.419Z,15.43
2018-05-16T19:18:23.244Z,14.43
2018-05-16T19:20:52.423Z,15.20
2018-05-16T19:23:20.518Z,16.93
2018-05-16T19:25:48.759Z,16.80
2018-05-16T19:28:16.971Z,15.47
2018-05-16T19:30:45.817Z,15.20
2018-05-16T19:33:14.612Z,16.07
2018-05-16T19:35:42.466Z,17.00
2018-05-16T19:38:10.781Z,17.97
2018-05-16T19:40:39.834Z,16.23
2018-05-16T19:43:08.037Z,18.40
2018-05-16T19:45:36.001Z,18.50
2018-05-16T19:48:03.729Z,16.40
2018-05-16T19:50:32.363Z,18.73
2018-05-16T19:53:01.038Z,17.77
2018-05-16T19:55:30.352Z,17.43
2018-05-16T19:57:58.949Z,18.27
2018-05-16T20:00:27.853Z,17.90
2018-05-16T20:02:56.027Z,17.43
2018-05-16T20:05:25.856Z,17.07
2018-05-16T20:07:54.997Z,19.20
2018-05-16T20:10:24.320Z,18.20
2018-05-16T20:12:52.878Z,19.57
2018-05-16T20:15:21.249Z,20.37
2018-05-16T20:17:49.388Z,18.90
2018-05-16T20:20:17.303Z,18.77
2018-05-16T20:22:46.817Z,19.77
2018-05-16T20:25:14.680Z,19.23
2018-05-16T20:27:43.719Z,18.70
2018-05-16T20:30:14.048Z,21.80
2018-05-16T20:32:45.107Z,21.97
2018-05-16T20:35:13.314Z,22.23
2018-05-16T20:37:41.501Z,24.10
2018-05-16T20:40:09.601Z,20.33
2018-05-16T20:42:38.542Z,20.23
2018-05-16T20:45:07.096Z,21.90
2018-05-16T20:47:34.957Z,21.40
2018-05-16T20:50:04.830Z,23.57
2018-05-16T20:52:32.990Z,22.73
2018-05-16T20:55:03.156Z,23.70
2018-05-16T20:57:31.870Z,25.50
2018-05-16T21:00:01.798Z,29.03
2018-05-16T21:02:29.952Z,27.50
2018-05-16T21:04:58.953Z,27.97
2018-05-16T21:07:26.637Z,27.07
2018-05-16T21:09:56.466Z,24.83
2018-05-16T21:12:24.454Z,25.90
2018-05-16T21:14:52.254Z,29.90
2018-05-16T21:17:20.214Z,33.43
2018-05-16T21:19:52.390Z,36.00
2018-05-16T21:22:20.233Z,36.03
2018-05-16T21:24:49.034Z,34.63
2018-05-16T21:27:16.840Z,38.87
2018-05-16T21:29:45.473Z,41.20
2018-05-16T21:32:15.247Z,42.40
2018-05-16T21:34:46.304Z,41.67
2018-05-16T21:37:15.985Z,43.00
2018-05-16T21:39:47.501Z,47.83
2018-05-16T21:42:16.215Z,16.90
2018-05-16T21:44:49.843Z,22.07
2018-05-16T21:47:18.157Z,23.20
2018-05-16T21:49:50.432Z,21.93
2018-05-16T21:52:19.850Z,24.33
2018-05-16T21:54:54.945Z,27.33
2018-05-16T21:57:24.650Z,32.17
2018-05-16T21:59:56.171Z,33.90
2018-05-16T22:02:26.508Z,34.30
2018-05-16T22:04:56.286Z,40.77
2018-05-16T22:10:29.908Z,41.70
2018-05-16T22:12:58.896Z,46.23
2018-05-16T22:15:30.167Z,42.77
2018-05-16T22:17:58.801Z,38.60
2018-05-16T22:20:32.843Z,38.50
2018-05-16T22:23:04.602Z,37.13
2018-05-16T22:25:33.824Z,34.70
2018-05-16T22:28:02.334Z,35.67
2018-05-16T22:30:36.120Z,37.13
2018-05-16T22:33:10.982Z,36.00
2018-05-16T22:35:46.323Z,34.03
2018-05-16T22:38:20.506Z,34.50
2018-05-16T22:40:56.514Z,32.77
2018-05-16T22:43:28.896Z,31.23
2018-05-16T22:45:59.865Z,32.77
2018-05-16T22:48:30.076Z,30.20
2018-05-16T22:50:59.810Z,34.13
2018-05-16T22:53:34.492Z,27.53
2018-05-16T22:56:03.528Z,25.97
2018-05-16T22:58:36.609Z,25.90
2018-05-16T23:01:06.892Z,23.10
2018-05-16T23:03:43.972Z,21.20
2018-05-16T23:06:12.735Z,22.90
2018-05-16T23:08:44.832Z,21.67
2018-05-16T23:11:13.980Z,21.37
2018-05-16T23:13:43.177Z,21.07
2018-05-16T23:16:12.910Z,20.90
2018-05-16T23:18:52.297Z,19.70
2018-05-16T23:21:21.439Z,19.30
2018-05-16T23:23:50.001Z,20.50
2018-05-16T23:26:29.431Z,21.50
2018-05-16T23:28:57.843Z,20.53
2018-05-16T23:31:29.406Z,20.33
2018-05-16T23:33:57.607Z,20.77
2018-05-16T23:36:26.686Z,22.03
2018-05-16T23:38:54.533Z,21.80
2018-05-16T23:41:23.663Z,21.30
2018-05-16T23:43:52.035Z,23.90
2018-05-16T23:46:22.530Z,25.40
2018-05-16T23:48:55.103Z,24.13
2018-05-16T23:51:23.300Z,22.83
2018-05-16T23:53:51.715Z,23.23
2018-05-16T23:56:23.694Z,23.57
2018-05-16T23:58:51.636Z,26.17
